Time;durP1;ratioP1;P1;durP2;ratioP2;P2;SDS_P1;SDS_P2;PMS_P1;PMS_P2;Temp;Humidity;BMP_temperature;BMP_pressure;BME280_temperature;BME280_humidity;BME280_pressure;Samples;Min_cycle;Max_cycle;Signal;HPM_P1;HPM_P2
2023/02/01 00:01:34;;;;;;;15.50;12.20;;;;;;;5.90;65.10;101199.02;106387;1269;1003774;-60
2023/02/01 00:04:01;;;;;;;13.60;11.10;;;;;;;5.91;65.02;101196.95;107074;1267;23895;-60
2023/02/01 00:06:30;;;;;;;14.70;11.30;;;;;;;5.93;64.99;101198.69;107154;1267;26508;-60
2023/02/01 00:08:58;;;;;;;14.10;11.30;;;;;;;5.95;65.04;101196.97;106914;1269;25349;-60
2023/02/01 00:11:25;;;;;;;16.10;12.30;;;;;;;5.97;64.94;101195.77;107141;1266;25337;-60
2023/02/01 00:13:53;;;;;;;14.10;11.30;;;;;;;5.97;64.88;101196.46;106944;1272;25359;-60
2023/02/01 00:16:28;;;;;;;14.30;11.10;;;;;;;5.97;64.57;101197.84;106385;1266;1003586;-60
2023/02/01 00:19:06;;;;;;;15.20;10.20;;;;;;;5.97;64.56;101194.58;106477;1267;1002843;-60
2023/02/01 00:21:33;;;;;;;13.70;10.80;;;;;;;5.92;64.60;101196.44;107100;1271;25408;-60
2023/02/01 00:24:01;;;;;;;11.40;10.20;;;;;;;5.88;64.70;101190.05;106327;1270;1003004;-60
2023/02/01 00:26:34;;;;;;;12.20;10.70;;;;;;;5.84;64.97;101194.50;106758;1273;25426;-60
2023/02/01 00:29:02;;;;;;;13.40;10.50;;;;;;;5.84;65.00;101196.92;106893;1267;25433;-60
2023/02/01 00:31:30;;;;;;;13.50;10.60;;;;;;;5.75;65.17;101196.67;107110;1266;25309;-60
2023/02/01 00:33:57;;;;;;;16.70;11.10;;;;;;;5.74;65.26;101195.64;107135;1266;25359;-60
2023/02/01 00:36:24;;;;;;;12.20;10.20;;;;;;;5.80;65.28;101198.09;106789;1272;24348;-60
2023/02/01 00:38:51;;;;;;;12.80;10.40;;;;;;;5.90;65.10;101198.67;105702;1271;1002637;-61
2023/02/01 00:41:19;;;;;;;11.40;10.20;;;;;;;5.95;64.92;101194.21;106335;1275;25513;-59
2023/02/01 00:43:47;;;;;;;14.00;10.60;;;;;;;5.99;64.79;101188.55;106382;1272;22571;-60
2023/02/01 00:46:15;;;;;;;14.70;10.40;;;;;;;5.99;64.50;101188.73;105809;1271;1003508;-60
2023/02/01 00:48:42;;;;;;;12.90;10.50;;;;;;;5.92;64.62;101186.29;105994;1273;25298;-60
2023/02/01 00:51:11;;;;;;;11.40;9.70;;;;;;;5.92;64.64;101189.05;106236;1278;24249;-60
2023/02/01 00:53:39;;;;;;;13.10;9.60;;;;;;;5.89;64.75;101186.79;106413;1278;24211;-60
2023/02/01 00:56:07;;;;;;;13.70;9.60;;;;;;;5.85;64.69;101188.34;106668;1273;25421;-60
2023/02/01 00:58:35;;;;;;;11.80;9.90;;;;;;;5.79;64.92;101189.46;106861;1274;25290;-59
2023/02/01 01:01:10;;;;;;;12.80;9.80;;;;;;;5.76;64.93;101191.86;106808;1272;22643;-60
2023/02/01 01:03:40;;;;;;;13.60;9.50;;;;;;;5.72;65.15;101185.48;106613;1273;22546;-60
2023/02/01 01:06:10;;;;;;;11.80;10.30;;;;;;;5.69;65.36;101189.58;106375;1273;25972;-61
2023/02/01 01:08:37;;;;;;;12.00;10.20;;;;;;;5.66;65.41;101190.95;106886;1270;22753;-60
2023/02/01 01:11:15;;;;;;;13.00;9.90;;;;;;;5.65;65.51;101189.05;106863;1275;25322;-60
2023/02/01 01:13:43;;;;;;;13.40;10.60;;;;;;;5.62;65.70;101190.09;107139;1272;25353;-60
2023/02/01 01:16:10;;;;;;;14.40;10.40;;;;;;;5.58;65.94;101191.93;106407;1269;1003502;-59
2023/02/01 01:18:38;;;;;;;12.50;10.60;;;;;;;5.54;66.11;101194.67;106646;1276;25417;-60
2023/02/01 01:21:05;;;;;;;13.60;10.90;;;;;;;5.54;66.28;101194.67;106967;1269;25353;-60
2023/02/01 01:23:34;;;;;;;14.60;10.50;;;;;;;5.55;66.11;101196.75;106015;1270;1002871;-60
2023/02/01 01:26:05;;;;;;;13.80;10.00;;;;;;;5.67;65.82;101198.36;106862;1269;25518;-60
2023/02/01 01:28:34;;;;;;;12.80;10.20;;;;;;;5.72;65.51;101193.91;107063;1270;22652;-60
2023/02/01 01:31:02;;;;;;;12.40;9.40;;;;;;;5.71;65.41;101196.14;106776;1268;25317;-61
2023/02/01 01:33:29;;;;;;;11.80;9.00;;;;;;;5.71;65.51;101194.94;106987;1273;22534;-60
2023/02/01 01:35:56;;;;;;;11.80;8.90;;;;;;;5.73;65.58;101196.66;106199;1267;1003086;-60
2023/02/01 01:38:23;;;;;;;12.70;9.00;;;;;;;5.78;65.48;101197.20;106842;1272;24173;-59
2023/02/01 01:40:51;;;;;;;12.70;9.10;;;;;;;5.83;65.37;101195.69;107039;1271;25359;-60
2023/02/01 01:43:22;;;;;;;11.20;8.20;;;;;;;5.87;65.20;101194.88;107233;1269;25395;-60
2023/02/01 01:45:50;;;;;;;;;;;;;;;5.90;64.99;101199.18;107036;1268;24299;-59
2023/02/01 01:48:27;;;;;;;12.60;9.00;;;;;;;5.92;64.94;101198.69;107277;1267;25511;-60
2023/02/01 01:51:01;;;;;;;11.70;8.70;;;;;;;5.94;64.88;101196.45;107009;1267;25440;-60
2023/02/01 01:53:32;;;;;;;9.70;8.60;;;;;;;5.92;64.77;101194.38;107150;1269;25369;-60
2023/02/01 01:55:59;;;;;;;10.40;8.60;;;;;;;5.86;64.95;101192.46;107014;1271;22523;-60
2023/02/01 01:58:27;;;;;;;13.00;8.90;;;;;;;5.95;64.75;101190.08;107003;1268;25377;-60
2023/02/01 02:00:54;;;;;;;12.70;8.80;;;;;;;5.98;64.43;101190.27;106143;1269;1003553;-60
2023/02/01 02:03:34;;;;;;;11.10;8.40;;;;;;;5.98;64.37;101189.91;106703;1269;25404;-61
2023/02/01 02:06:02;;;;;;;10.50;8.20;;;;;;;5.98;64.25;101191.98;106760;1273;25236;-60
2023/02/01 02:08:29;;;;;;;12.10;9.30;;;;;;;5.99;64.30;101192.86;106616;1274;22523;-60
2023/02/01 02:10:59;;;;;;;13.70;9.00;;;;;;;6.05;64.33;101196.48;106915;1273;25526;-60
2023/02/01 02:13:40;;;;;;;13.50;9.30;;;;;;;6.08;64.08;101195.48;106871;1258;25455;-60
2023/02/01 02:16:45;;;;;;;15.00;10.30;;;;;;;6.10;63.89;101194.96;106866;1270;25364;-60
2023/02/01 02:19:37;;;;;;;15.20;10.30;;;;;;;6.11;63.92;101190.84;106968;1273;25530;-60
2023/02/01 02:22:23;;;;;;;14.70;8.70;;;;;;;6.09;64.03;101195.98;107071;1269;25376;-60
2023/02/01 02:25:29;;;;;;;12.60;9.20;;;;;;;6.05;64.13;101195.29;106897;1276;25527;-60
2023/02/01 02:28:08;;;;;;;13.10;8.30;;;;;;;6.08;64.05;101195.82;106102;1269;1003253;-60
2023/02/01 02:30:57;;;;;;;12.90;7.90;;;;;;;6.09;63.79;101196.16;106747;1269;25946;-60
2023/02/01 02:33:49;;;;;;;16.40;8.70;;;;;;;6.07;63.66;101197.54;106845;1276;25356;-60
2023/02/01 02:37:01;;;;;;;10.40;8.10;;;;;;;6.05;63.72;101200.12;106831;1269;25496;-59
2023/02/01 02:39:31;;;;;;;10.80;7.80;;;;;;;6.03;63.84;101198.89;106610;1274;22517;-60
2023/02/01 02:48:22;;;;;;;10.30;7.50;;;;;;;6.03;63.62;101203.73;106660;1270;25494;-60
2023/02/01 03:05:12;;;;;;;12.00;7.90;;;;;;;5.85;63.99;101198.83;106290;1267;1003656;-60
2023/02/01 03:07:43;;;;;;;10.50;8.00;;;;;;;5.94;63.57;101196.80;107077;1270;22738;-60
2023/02/01 03:10:18;;;;;;;10.00;7.80;;;;;;;5.96;63.55;101201.63;106891;1269;22913;-60
2023/02/01 03:12:57;;;;;;;13.70;8.40;;;;;;;5.96;63.52;101198.02;106997;1272;23907;-59
2023/02/01 03:15:46;;;;;;;11.00;8.40;;;;;;;5.98;63.49;101198.88;106831;1271;24492;-60
2023/02/01 03:18:17;;;;;;;16.30;8.60;;;;;;;5.98;63.50;101197.84;107159;1267;22531;-60
2023/02/01 03:20:46;;;;;;;13.20;9.00;;;;;;;5.93;63.34;101199.90;107083;1267;24263;-60
2023/02/01 03:23:13;;;;;;;12.40;9.10;;;;;;;5.91;63.34;101203.15;107111;1269;22658;-60
2023/02/01 03:25:41;;;;;;;13.10;8.40;;;;;;;5.92;63.40;101201.09;106996;1269;25383;-60
2023/02/01 03:28:08;;;;;;;11.80;8.90;;;;;;;5.91;63.49;101201.77;106805;1267;25324;-60
2023/02/01 03:30:37;;;;;;;11.20;8.50;;;;;;;5.92;63.45;101205.22;107079;1267;25372;-60
2023/02/01 03:33:13;;;;;;;13.20;9.20;;;;;;;5.91;63.13;101208.33;106358;1269;1003602;-60
2023/02/01 03:35:50;;;;;;;12.80;9.20;;;;;;;5.88;63.41;101206.41;106469;1272;1003018;-60
2023/02/01 03:38:23;;;;;;;12.90;9.70;;;;;;;5.86;63.35;101206.75;107017;1270;25350;-60
2023/02/01 03:41:03;;;;;;;11.50;8.60;;;;;;;5.85;63.65;101209.68;107187;1270;25405;-60
2023/02/01 03:43:34;;;;;;;11.80;8.90;;;;;;;5.85;63.60;101205.03;106957;1271;22544;-60
2023/02/01 03:46:03;;;;;;;10.20;8.70;;;;;;;5.85;63.49;101208.13;107222;1266;22533;-60
2023/02/01 03:48:31;;;;;;;11.00;9.00;;;;;;;5.85;63.36;101208.98;106881;1271;22628;-60
2023/02/01 03:51:00;;;;;;;12.00;9.40;;;;;;;5.83;63.27;101208.44;106945;1272;22525;-60
2023/02/01 03:53:29;;;;;;;12.60;9.20;;;;;;;5.81;63.21;101207.56;106888;1273;25406;-60
2023/02/01 03:55:56;;;;;;;13.50;8.30;;;;;;;5.79;63.29;101208.91;106439;1268;1003496;-60
2023/02/01 03:58:23;;;;;;;12.80;9.20;;;;;;;5.80;63.39;101205.83;106814;1273;25359;-60
2023/02/01 04:00:55;;;;;;;12.30;8.50;;;;;;;5.80;63.24;101203.77;107035;1272;22546;-60
2023/02/01 04:03:23;;;;;;;12.40;8.70;;;;;;;5.79;63.09;101202.55;106807;1275;25338;-60
2023/02/01 04:05:51;;;;;;;12.30;9.60;;;;;;;5.77;63.12;101196.85;107139;1270;25485;-60
2023/02/01 04:08:19;;;;;;;13.70;9.20;;;;;;;5.74;63.04;101195.80;107149;1268;25418;-60
2023/02/01 04:10:48;;;;;;;12.80;9.10;;;;;;;5.71;63.10;101195.11;107096;1269;25352;-59
2023/02/01 04:13:17;;;;;;;12.60;8.70;;;;;;;5.67;63.18;101195.42;107093;1266;25350;-60
2023/02/01 04:15:45;;;;;;;13.90;9.80;;;;;;;5.68;63.10;101192.85;106805;1267;24382;-60
2023/02/01 04:18:12;;;;;;;10.40;9.00;;;;;;;5.58;63.10;101189.36;106657;1274;303666;-60
2023/02/01 04:20:39;;;;;;;12.20;9.60;;;;;;;5.53;63.08;101185.89;106783;1272;25495;-60
2023/02/01 04:23:06;;;;;;;16.70;10.40;;;;;;;5.55;62.80;101187.79;107024;1267;25373;-60
2023/02/01 04:25:34;;;;;;;17.10;10.20;;;;;;;5.44;62.89;101191.52;106333;1267;1002907;-60
2023/02/01 04:28:01;;;;;;;13.60;9.30;;;;;;;5.38;63.08;101201.12;107130;1266;25362;-60
2023/02/01 04:30:29;;;;;;;14.10;9.20;;;;;;;5.34;63.19;101212.95;107092;1270;25854;-60
2023/02/01 04:32:56;;;;;;;12.50;10.00;;;;;;;5.31;63.17;101231.17;106353;1267;1002880;-60
2023/02/01 04:35:29;;;;;;;14.80;9.80;;;;;;;5.28;63.23;101233.04;106216;1273;1002977;-60
2023/02/01 04:37:56;;;;;;;10.00;8.80;;;;;;;5.24;63.01;101227.15;107018;1269;25397;-59
2023/02/01 04:40:24;;;;;;;16.40;8.60;;;;;;;5.21;63.18;101233.67;106874;1274;25383;-60
2023/02/01 04:42:51;;;;;;;11.10;8.00;;;;;;;5.14;63.42;101241.54;106358;1274;25415;-60
2023/02/01 04:45:18;;;;;;;11.20;7.90;;;;;;;5.10;63.63;101241.48;106815;1267;25335;-62
2023/02/01 04:47:48;;;;;;;10.60;8.10;;;;;;;5.13;63.69;101238.08;107076;1267;25337;-59
2023/02/01 04:50:16;;;;;;;10.50;8.50;;;;;;;5.19;63.45;101243.63;107055;1267;25377;-59
2023/02/01 04:52:45;;;;;;;12.90;8.10;;;;;;;5.13;63.43;101250.98;106368;1268;1015395;-59
2023/02/01 04:55:13;;;;;;;11.80;8.10;;;;;;;5.04;63.64;101256.23;107073;1266;25405;-60
2023/02/01 04:57:41;;;;;;;11.70;7.60;;;;;;;5.01;63.64;101257.06;107006;1267;26640;-59
2023/02/01 05:00:09;;;;;;;10.80;7.60;;;;;;;4.98;63.69;101255.83;106751;1267;25396;-60
2023/02/01 05:02:36;;;;;;;11.10;7.70;;;;;;;4.97;63.41;101259.10;107027;1267;22761;-59
2023/02/01 05:05:03;;;;;;;14.10;8.20;;;;;;;4.94;63.56;101255.64;107124;1267;25561;-59
2023/02/01 05:07:31;;;;;;;10.30;7.30;;;;;;;4.91;63.46;101258.52;107215;1267;25409;-59
2023/02/01 05:09:58;;;;;;;11.00;7.10;;;;;;;4.85;63.38;101261.74;107107;1267;25557;-59
2023/02/01 05:15:12;;;;;;;8.90;6.60;;;;;;;4.90;63.14;101259.20;107019;1273;25353;-60
2023/02/01 05:17:40;;;;;;;11.90;7.70;;;;;;;4.89;62.99;101258.00;106888;1269;22546;-60
2023/02/01 05:20:08;;;;;;;8.70;7.10;;;;;;;4.88;62.82;101260.21;107079;1265;25334;-60
2023/02/01 05:22:36;;;;;;;12.30;7.20;;;;;;;4.84;62.87;101262.25;107049;1268;25322;-60
2023/02/01 05:25:03;;;;;;;13.20;7.20;;;;;;;4.82;62.62;101265.66;107199;1267;25533;-60
2023/02/01 05:27:30;;;;;;;9.60;6.50;;;;;;;4.79;63.01;101267.86;107221;1267;25359;-60
2023/02/01 05:29:58;;;;;;;8.80;6.50;;;;;;;4.77;62.97;101272.66;107064;1267;25530;-60
2023/02/01 05:32:24;;;;;;;9.50;6.80;;;;;;;4.77;63.15;101274.91;107038;1270;27120;-60
2023/02/01 05:34:52;;;;;;;8.90;6.20;;;;;;;4.76;62.93;101272.64;107004;1266;25437;-60
2023/02/01 05:37:22;;;;;;;8.90;6.10;;;;;;;4.73;62.88;101279.84;107066;1267;25442;-60
2023/02/01 05:39:49;;;;;;;9.00;6.00;;;;;;;4.70;62.76;101282.73;107078;1266;25509;-59
2023/02/01 05:42:16;;;;;;;11.50;6.60;;;;;;;4.68;62.82;101285.63;106938;1269;23868;-60
2023/02/01 05:44:43;;;;;;;9.60;6.30;;;;;;;4.67;63.21;101288.36;106245;1270;1002962;-59
2023/02/01 05:47:12;;;;;;;9.10;6.30;;;;;;;4.67;63.26;101289.91;107081;1269;25349;-60
2023/02/01 05:49:39;;;;;;;11.00;6.30;;;;;;;4.68;63.07;101289.75;107088;1268;25393;-60
2023/02/01 05:52:06;;;;;;;10.40;6.30;;;;;;;4.68;62.78;101289.76;106722;1254;26704;-61
2023/02/01 05:54:34;;;;;;;10.40;6.70;;;;;;;4.66;62.85;101285.61;106990;1273;22583;-59
2023/02/01 05:57:02;;;;;;;12.70;6.40;;;;;;;4.67;63.12;101285.79;107137;1273;25446;-60
2023/02/01 05:59:30;;;;;;;10.30;6.60;;;;;;;4.73;63.50;101289.64;106075;1270;1015935;-60
2023/02/01 06:01:57;;;;;;;9.50;5.40;;;;;;;4.84;63.40;101285.61;107028;1253;25488;-60
2023/02/01 06:04:24;;;;;;;10.20;6.90;;;;;;;4.97;63.08;101288.50;106334;1272;1003228;-59
2023/02/01 06:06:51;;;;;;;10.70;6.40;;;;;;;5.10;62.92;101286.89;106630;1269;24592;-60
2023/02/01 06:09:18;;;;;;;10.70;6.30;;;;;;;5.20;62.52;101283.72;106905;1269;23465;-60
2023/02/01 06:11:45;;;;;;;9.50;6.60;;;;;;;5.23;62.06;101286.14;106917;1269;24213;-59
2023/02/01 06:14:13;;;;;;;7.70;6.20;;;;;;;5.19;61.94;101288.88;107080;1267;26113;-59
2023/02/01 06:16:40;;;;;;;10.70;8.70;;;;;;;5.22;62.01;101288.02;106077;1270;1003703;-59
2023/02/01 06:19:06;;;;;;;149.10;72.20;;;;;;;5.29;61.86;101286.55;107200;1267;25348;-59
2023/02/01 06:21:35;;;;;;;80.10;39.10;;;;;;;5.38;61.99;101288.17;107023;1267;25404;-59
2023/02/01 06:24:03;;;;;;;43.30;24.80;;;;;;;5.51;61.58;101283.80;107169;1267;25348;-59
2023/02/01 06:26:30;;;;;;;20.20;14.50;;;;;;;5.69;61.23;101286.33;106440;1267;1002925;-59
2023/02/01 06:28:58;;;;;;;14.30;9.50;;;;;;;5.80;61.05;101289.14;107226;1268;25356;-59
2023/02/01 06:31:25;;;;;;;11.60;6.70;;;;;;;5.90;60.69;101290.61;106920;1267;25324;-59
2023/02/01 06:33:53;;;;;;;12.40;8.70;;;;;;;6.01;60.32;101293.09;106957;1266;25362;-59
2023/02/01 06:36:23;;;;;;;13.20;10.40;;;;;;;6.14;59.72;101293.15;105994;1267;1003399;-59
2023/02/01 06:38:50;;;;;;;13.10;9.10;;;;;;;6.26;59.20;101290.96;106860;1270;28134;-60
2023/02/01 06:41:20;;;;;;;13.40;9.80;;;;;;;6.35;58.66;101290.16;106931;1267;25411;-60
2023/02/01 06:43:47;;;;;;;22.30;17.30;;;;;;;6.42;58.24;101288.61;106939;1267;25420;-60
2023/02/01 06:46:15;;;;;;;19.40;11.30;;;;;;;6.43;57.61;101283.80;106829;1271;25416;-60
2023/02/01 06:48:42;;;;;;;16.90;11.80;;;;;;;6.43;57.61;101282.77;106137;1267;1003732;-60
2023/02/01 06:51:24;;;;;;;9.60;7.30;;;;;;;6.46;57.33;101281.05;107147;1267;24266;-61
2023/02/01 06:53:52;;;;;;;10.50;7.40;;;;;;;6.45;57.01;101283.47;106978;1268;22520;-58
2023/02/01 06:56:20;;;;;;;10.50;6.50;;;;;;;6.48;56.94;101287.27;107025;1267;25353;-61
2023/02/01 06:58:48;;;;;;;10.00;7.20;;;;;;;6.41;57.11;101288.45;107166;1266;25474;-60
2023/02/01 07:01:16;;;;;;;8.20;6.20;;;;;;;6.39;57.21;101296.71;106993;1265;25334;-61
2023/02/01 07:03:47;;;;;;;9.70;6.90;;;;;;;6.39;57.19;101305.33;106999;1267;22532;-61
2023/02/01 07:06:13;;;;;;;11.50;6.90;;;;;;;6.36;57.10;101308.25;106999;1266;22552;-58
2023/02/01 07:08:43;;;;;;;9.90;7.10;;;;;;;6.30;57.22;101310.13;106735;1274;25414;-61
2023/02/01 07:11:11;;;;;;;9.60;6.40;;;;;;;6.24;57.24;101313.02;107028;1270;25407;-60
2023/02/01 07:13:38;;;;;;;11.10;6.70;;;;;;;6.19;57.44;101310.92;107149;1267;22526;-61
2023/02/01 07:16:17;;;;;;;12.00;6.50;;;;;;;6.13;57.48;101310.90;106876;1272;25437;-61
2023/02/01 07:18:44;;;;;;;14.60;6.90;;;;;;;6.10;57.91;101312.25;106977;1272;22642;-60
2023/02/01 07:21:11;;;;;;;9.20;6.60;;;;;;;6.09;58.16;101316.73;107091;1267;22539;-60
2023/02/01 07:23:39;;;;;;;10.40;6.60;;;;;;;6.12;58.20;101316.73;107073;1267;22653;-60
2023/02/01 07:26:07;;;;;;;11.70;7.20;;;;;;;6.15;58.10;101315.20;107133;1266;25344;-60
2023/02/01 07:28:35;;;;;;;9.90;6.80;;;;;;;6.11;58.11;101315.52;107071;1266;25362;-61
2023/02/01 07:31:18;;;;;;;10.70;6.80;;;;;;;6.17;57.81;101314.71;107190;1266;25358;-60
2023/02/01 07:33:45;;;;;;;9.40;6.50;;;;;;;6.13;57.83;101315.20;107031;1266;25284;-60
2023/02/01 07:36:14;;;;;;;10.80;6.50;;;;;;;6.06;58.00;101312.41;107091;1266;24269;-61
2023/02/01 07:38:42;;;;;;;9.90;6.00;;;;;;;6.14;57.96;101311.06;106093;1273;1003158;-60
2023/02/01 07:41:09;;;;;;;10.50;7.00;;;;;;;6.18;57.86;101307.64;106813;1267;24226;-60
2023/02/01 07:43:36;;;;;;;9.40;6.20;;;;;;;6.20;57.61;101307.13;107056;1266;25366;-60
2023/02/01 07:46:04;;;;;;;11.90;6.30;;;;;;;6.19;57.51;101308.68;106106;1269;1003739;-60
2023/02/01 07:48:31;;;;;;;9.30;5.90;;;;;;;6.18;57.28;101302.65;106500;1269;1003761;-60
2023/02/01 07:51:09;;;;;;;13.40;6.80;;;;;;;6.14;57.19;101304.52;107105;1267;22528;-60
2023/02/01 07:53:37;;;;;;;10.40;6.50;;;;;;;6.11;57.28;101300.38;107237;1266;25425;-60
2023/02/01 07:56:08;;;;;;;13.00;6.50;;;;;;;6.11;57.29;101304.15;107045;1266;25373;-60
2023/02/01 07:58:35;;;;;;;10.40;6.30;;;;;;;6.08;57.46;101307.25;106955;1267;24394;-60
2023/02/01 08:01:21;;;;;;;10.00;5.70;;;;;;;6.06;57.78;101306.20;106349;1270;1003798;-60
2023/02/01 08:03:49;;;;;;;10.40;6.40;;;;;;;6.11;58.00;101305.02;107055;1266;25486;-60
2023/02/01 08:06:16;;;;;;;10.60;7.20;;;;;;;6.19;57.99;101305.05;106890;1266;24231;-60
2023/02/01 08:08:44;;;;;;;10.50;6.70;;;;;;;6.28;58.00;101306.31;107114;1259;25485;-60
2023/02/01 08:11:12;;;;;;;10.80;6.60;;;;;;;6.33;57.76;101303.23;106418;1266;1003172;-60
2023/02/01 08:13:39;;;;;;;8.60;5.90;;;;;;;6.30;57.89;101303.23;107114;1267;25520;-60
2023/02/01 08:16:07;;;;;;;12.10;6.60;;;;;;;6.32;57.83;101304.79;106272;1269;1002982;-60
2023/02/01 08:18:35;;;;;;;9.20;6.80;;;;;;;6.36;57.78;101297.39;106850;1271;25352;-60
2023/02/01 08:21:16;;;;;;;9.20;6.30;;;;;;;6.47;57.51;101290.02;106827;1270;22525;-61
2023/02/01 08:23:43;;;;;;;7.60;5.80;;;;;;;6.49;57.12;101286.58;106607;1273;22530;-61
2023/02/01 08:26:15;;;;;;;10.70;6.40;;;;;;;6.46;57.04;101282.09;106951;1267;25378;-59
2023/02/01 08:28:45;;;;;;;9.60;6.50;;;;;;;6.39;56.67;101284.48;106796;1267;24222;-60
2023/02/01 08:31:16;;;;;;;11.20;6.30;;;;;;;6.37;56.62;101283.09;107115;1266;22649;-60
2023/02/01 08:33:47;;;;;;;11.70;6.80;;;;;;;6.40;56.70;101279.66;107066;1266;25455;-59
2023/02/01 08:36:14;;;;;;;8.30;6.60;;;;;;;6.45;56.76;101278.98;107027;1266;26645;-59
2023/02/01 08:38:41;;;;;;;12.40;7.10;;;;;;;6.60;56.61;101291.77;107044;1270;25348;-59
2023/02/01 08:41:11;;;;;;;9.90;6.90;;;;;;;6.68;56.63;101301.81;107153;1266;25345;-59
2023/02/01 08:43:38;;;;;;;10.70;6.40;;;;;;;6.73;56.65;101309.23;107141;1267;22543;-60
2023/02/01 08:46:06;;;;;;;12.00;6.30;;;;;;;6.79;56.64;101305.29;107103;1267;22529;-61
2023/02/01 08:48:34;;;;;;;8.90;5.40;;;;;;;6.85;56.49;101308.40;107076;1267;25335;-61
2023/02/01 08:51:06;;;;;;;9.20;5.90;;;;;;;6.92;56.39;101313.76;107071;1267;25356;-61
2023/02/01 08:53:33;;;;;;;8.70;6.30;;;;;;;6.99;56.26;101311.35;107108;1266;24290;-60
2023/02/01 08:56:03;;;;;;;12.10;6.80;;;;;;;7.05;56.24;101311.88;107094;1269;25497;-61
2023/02/01 08:58:30;;;;;;;11.10;7.20;;;;;;;7.08;56.12;101312.58;107159;1266;22530;-61
2023/02/01 09:01:05;;;;;;;10.10;6.80;;;;;;;7.10;55.90;101314.48;106484;1267;1003815;-61
2023/02/01 09:03:32;;;;;;;13.60;8.00;;;;;;;7.13;56.04;101311.72;106426;1265;1003709;-61
2023/02/01 09:06:04;;;;;;;14.30;7.70;;;;;;;7.16;56.25;101303.45;106835;1273;24295;-61
2023/02/01 09:08:31;;;;;;;11.60;6.80;;;;;;;7.20;56.08;101308.29;107167;1266;25373;-61
2023/02/01 09:11:03;;;;;;;10.40;7.10;;;;;;;7.23;55.76;101297.92;106192;1270;1003384;-61
2023/02/01 09:13:33;;;;;;;11.60;7.60;;;;;;;7.25;55.92;101287.05;107100;1267;25507;-61
2023/02/01 09:16:01;;;;;;;12.50;7.70;;;;;;;7.28;55.65;101283.95;106399;1267;1003703;-61
2023/02/01 09:18:29;;;;;;;12.10;7.30;;;;;;;7.31;55.74;101283.09;107118;1266;25334;-61
2023/02/01 09:20:56;;;;;;;12.90;7.50;;;;;;;7.33;55.84;101284.65;107071;1265;25522;-61
2023/02/01 09:23:23;;;;;;;11.80;6.90;;;;;;;7.36;55.95;101284.82;106373;1253;1003325;-61
2023/02/01 09:25:51;;;;;;;11.10;7.40;;;;;;;7.38;55.84;101284.81;107151;1266;22526;-61
2023/02/01 09:28:19;;;;;;;12.10;7.20;;;;;;;7.39;55.94;101281.36;107090;1267;26504;-60
2023/02/01 09:30:46;;;;;;;12.30;7.90;;;;;;;7.43;56.06;101277.39;107123;1266;25495;-59
2023/02/01 09:33:14;;;;;;;11.40;7.40;;;;;;;7.48;56.22;101271.34;107134;1270;25431;-61
2023/02/01 09:35:41;;;;;;;12.20;7.50;;;;;;;7.54;56.22;101263.75;106853;1266;25478;-60
2023/02/01 09:38:08;;;;;;;11.40;6.80;;;;;;;7.59;55.89;101260.29;107156;1267;25392;-61
2023/02/01 09:40:35;;;;;;;11.10;7.70;;;;;;;7.60;55.54;101255.98;106794;1270;25465;-61
2023/02/01 09:46:28;;;;;;;11.30;7.10;;;;;;;7.63;55.64;101254.58;103546;1297;545006;-59
2023/02/01 09:48:58;;;;;;;13.30;7.80;;;;;;;7.62;56.11;101252.16;105903;1282;23005;-61
2023/02/01 09:51:30;;;;;;;13.20;7.90;;;;;;;7.65;56.40;101255.09;105918;1285;22539;-60
2023/02/01 09:54:48;;;;;;;12.80;7.50;;;;;;;7.71;56.17;101253.35;105933;1284;22527;-59
2023/02/01 09:57:19;;;;;;;10.40;8.20;;;;;;;7.78;55.99;101251.79;104816;1288;1003066;-59
2023/02/01 09:59:57;;;;;;;;;;;;;;;7.84;55.66;101249.70;104682;1285;1003105;-60
2023/02/01 10:02:28;;;;;;;9.00;6.30;;;;;;;7.88;55.41;101250.70;105025;1285;1003051;-61
2023/02/01 10:04:58;;;;;;;10.20;6.90;;;;;;;7.89;55.29;101246.73;105897;1286;25407;-58
2023/02/01 10:07:42;;;;;;;10.50;7.30;;;;;;;7.89;55.49;101243.63;105096;1286;1003315;-61
2023/02/01 10:10:18;;;;;;;10.90;6.60;;;;;;;7.88;55.35;101241.22;105733;1285;26576;-61
2023/02/01 10:13:24;;;;;;;13.00;7.10;;;;;;;7.88;55.42;101236.72;105689;1286;25440;-61
2023/02/01 10:15:58;;;;;;;10.00;6.30;;;;;;;7.88;55.22;101237.23;105587;1291;24825;-61
2023/02/01 10:18:33;;;;;;;11.50;6.60;;;;;;;7.90;55.38;101235.52;105046;1287;1003759;-58
2023/02/01 10:21:11;;;;;;;9.10;6.50;;;;;;;7.93;55.30;101235.15;105728;1287;25387;-61
2023/02/01 10:24:20;;;;;;;11.90;7.10;;;;;;;7.96;55.27;101234.81;105588;1289;25368;-61
2023/02/01 10:26:54;;;;;;;10.60;7.80;;;;;;;8.01;55.38;101233.40;105512;1290;22783;-61
2023/02/01 10:29:24;;;;;;;10.80;7.00;;;;;;;8.03;55.08;101227.35;105516;1291;22546;-61
2023/02/01 10:31:52;;;;;;;11.10;7.40;;;;;;;8.05;55.12;101223.89;104908;1287;1003553;-61
2023/02/01 10:34:23;;;;;;;11.50;7.50;;;;;;;8.08;55.16;101222.31;104983;1285;1003786;-59
2023/02/01 10:37:00;;;;;;;12.00;6.90;;;;;;;8.11;55.22;101216.95;105670;1285;22540;-58
2023/02/01 10:39:28;;;;;;;8.70;6.50;;;;;;;8.15;55.02;101210.53;105497;1288;25625;-58
2023/02/01 10:41:56;;;;;;;10.70;7.00;;;;;;;8.19;54.54;101214.14;104958;1290;1002642;-58
2023/02/01 10:44:27;;;;;;;11.60;6.90;;;;;;;8.24;54.21;101215.86;105650;1284;25420;-58
2023/02/01 10:46:55;;;;;;;12.40;8.20;;;;;;;8.29;53.85;101213.61;105687;1285;22656;-59
2023/02/01 10:49:33;;;;;;;13.60;8.50;;;;;;;8.32;53.83;101212.20;105597;1290;25429;-59
2023/02/01 10:52:03;;;;;;;12.90;8.60;;;;;;;8.34;53.96;101211.16;105500;1290;25416;-61
2023/02/01 10:54:40;;;;;;;12.30;8.60;;;;;;;8.34;53.70;101206.49;105766;1288;22690;-60
2023/02/01 10:57:25;;;;;;;13.50;9.10;;;;;;;8.33;53.78;101203.21;105920;1288;22545;-61
2023/02/01 10:59:57;;;;;;;14.90;8.50;;;;;;;8.30;53.80;101199.26;105918;1282;25444;-61
2023/02/01 11:02:29;;;;;;;10.60;7.20;;;;;;;8.27;53.78;101203.60;106252;1269;1003125;-59
2023/02/01 11:05:12;;;;;;;11.60;7.70;;;;;;;8.24;53.82;101198.55;107068;1270;22541;-61
2023/02/01 11:07:59;;;;;;;8.80;6.60;;;;;;;8.24;53.60;101200.46;106857;1272;25815;-59
2023/02/01 11:10:40;;;;;;;10.40;6.10;;;;;;;8.25;53.49;101192.86;106924;1269;24272;-60
2023/02/01 11:13:15;;;;;;;10.90;6.00;;;;;;;8.27;53.58;101190.80;106929;1268;24260;-59
2023/02/01 11:15:45;;;;;;;9.30;5.30;;;;;;;8.35;53.68;101189.02;106934;1271;22543;-59
2023/02/01 11:18:19;;;;;;;6.80;4.60;;;;;;;8.42;53.16;101183.46;106250;1270;1003019;-59
2023/02/01 11:20:49;;;;;;;5.60;4.40;;;;;;;8.49;52.65;101183.94;107032;1268;22914;-59
2023/02/01 11:23:19;;;;;;;6.90;4.20;;;;;;;8.53;52.45;101178.54;106930;1268;23134;-59
2023/02/01 11:25:58;;;;;;;7.40;4.00;;;;;;;8.55;52.44;101178.36;106153;1267;1003089;-60
2023/02/01 11:28:31;;;;;;;8.00;4.00;;;;;;;8.55;52.06;101174.72;106903;1269;22547;-59
2023/02/01 11:31:02;;;;;;;7.60;4.50;;;;;;;8.53;51.63;101171.63;106923;1274;22525;-60
2023/02/01 11:33:34;;;;;;;6.20;4.10;;;;;;;8.49;51.38;101171.49;106196;1272;1003696;-60
2023/02/01 11:36:12;;;;;;;6.40;4.30;;;;;;;8.45;51.38;101163.56;107008;1269;22538;-60
2023/02/01 11:39:05;;;;;;;5.10;3.50;;;;;;;8.42;51.66;101161.33;107068;1269;25356;-60
2023/02/01 11:41:33;;;;;;;6.60;3.70;;;;;;;8.41;51.73;101158.23;106760;1276;25301;-61
2023/02/01 11:44:15;;;;;;;4.60;3.30;;;;;;;8.42;51.60;101159.77;106133;1270;1002871;-60
2023/02/01 11:46:44;;;;;;;;;;;;;;;8.44;51.76;101158.72;106855;1269;25330;-60
2023/02/01 11:49:25;;;;;;;5.40;3.60;;;;;;;8.47;51.52;101159.06;107055;1268;25425;-60
2023/02/01 11:52:34;;;;;;;5.30;3.80;;;;;;;8.52;51.24;101155.73;106111;1269;1003195;-60
2023/02/01 11:55:36;;;;;;;6.80;3.80;;;;;;;8.58;51.31;101152.05;106355;1280;25471;-60
2023/02/01 11:58:25;;;;;;;5.40;4.20;;;;;;;8.63;51.33;101150.10;106273;1275;25609;-60
2023/02/01 12:01:38;;;;;;;5.60;4.20;;;;;;;8.67;51.63;101150.96;106332;1275;25432;-60